createdAt,value
2022-11-19T00:02:05.599Z,13.35
2022-11-19T00:04:33.715Z,13.85
2022-11-19T00:07:02.149Z,13.40
2022-11-19T00:09:31.877Z,13.25
2022-11-19T00:12:17.769Z,14.43
2022-11-19T00:14:46.159Z,13.50
2022-11-19T00:17:14.289Z,12.63
2022-11-19T00:19:42.364Z,12.98
2022-11-19T00:22:10.411Z,13.77
2022-11-19T00:24:40.110Z,14.32
2022-11-19T00:27:08.213Z,14.23
2022-11-19T00:29:36.322Z,14.40
2022-11-19T00:32:04.498Z,14.77
2022-11-19T00:34:32.831Z,12.57
2022-11-19T00:37:00.840Z,14.60
2022-11-19T00:39:29.082Z,13.30
2022-11-19T00:41:58.556Z,13.88
2022-11-19T00:44:26.813Z,13.45
2022-11-19T00:46:54.913Z,14.15
2022-11-19T00:49:23.281Z,14.05
2022-11-19T00:51:51.442Z,15.00
2022-11-19T00:54:19.544Z,13.00
2022-11-19T00:56:47.850Z,12.73
2022-11-19T00:59:17.814Z,13.60
2022-11-19T01:01:46.353Z,14.60
2022-11-19T01:04:15.119Z,14.05
2022-11-19T01:06:43.266Z,15.20
2022-11-19T01:09:11.424Z,15.68
2022-11-19T01:11:40.082Z,15.88
2022-11-19T01:14:08.735Z,14.73
2022-11-19T01:16:39.506Z,13.48
2022-11-19T01:19:09.466Z,0.80
2022-11-19T01:21:38.502Z,0.60
2022-11-19T01:24:07.625Z,0.70
2022-11-19T01:26:35.756Z,0.50
2022-11-19T01:29:04.163Z,0.47
2022-11-19T01:31:32.562Z,0.30
2022-11-19T01:34:02.130Z,0.38
2022-11-19T01:36:31.886Z,0.40
2022-11-19T01:39:00.218Z,0.50
2022-11-19T01:41:29.947Z,0.30
2022-11-19T01:44:00.487Z,0.40
2022-11-19T01:46:31.111Z,0.40
2022-11-19T01:49:03.925Z,0.40
2022-11-19T01:51:36.175Z,0.45
2022-11-19T01:54:11.836Z,0.40
2022-11-19T01:56:40.570Z,0.40
2022-11-19T01:59:15.423Z,0.50
2022-11-19T02:01:45.318Z,0.40
2022-11-19T02:04:16.784Z,0.40
2022-11-19T02:06:47.059Z,0.40
2022-11-19T02:09:16.648Z,0.40
2022-11-19T02:12:03.140Z,0.30
2022-11-19T02:14:54.834Z,0.32
2022-11-19T02:17:36.277Z,0.32
2022-11-19T02:20:34.253Z,0.47
2022-11-19T02:23:20.653Z,0.47
2022-11-19T02:26:07.649Z,0.40
2022-11-19T02:28:39.504Z,0.30
2022-11-19T02:31:13.303Z,0.38
2022-11-19T02:33:49.841Z,0.35
2022-11-19T02:36:23.588Z,0.40
2022-11-19T02:38:57.798Z,0.40
2022-11-19T02:41:36.112Z,0.40
2022-11-19T02:44:31.696Z,0.60
2022-11-19T02:47:06.151Z,0.50
2022-11-19T02:49:37.050Z,0.47
2022-11-19T02:52:06.210Z,0.43
2022-11-19T02:54:34.252Z,0.40
2022-11-19T02:57:02.944Z,0.40
2022-11-19T02:59:53.331Z,0.50
2022-11-19T03:02:42.354Z,0.40
2022-11-19T03:05:14.213Z,0.40
2022-11-19T03:07:42.527Z,0.40
2022-11-19T03:10:12.685Z,0.50
2022-11-19T03:12:48.133Z,0.47
2022-11-19T03:15:47.069Z,0.45
2022-11-19T03:18:23.387Z,0.50
2022-11-19T03:20:56.868Z,0.47
2022-11-19T03:23:30.711Z,0.60
2022-11-19T03:26:02.887Z,0.50
2022-11-19T03:28:36.696Z,0.40
2022-11-19T03:31:07.050Z,0.50
2022-11-19T03:33:41.410Z,0.47
2022-11-19T03:36:13.993Z,0.57
2022-11-19T03:38:44.852Z,0.50
2022-11-19T03:41:16.371Z,0.50
2022-11-19T03:43:47.915Z,0.40
2022-11-19T03:46:19.460Z,0.45
2022-11-19T03:48:52.559Z,0.50
2022-11-19T03:51:23.591Z,0.47
2022-11-19T03:53:51.884Z,0.60
2022-11-19T03:56:25.005Z,0.45
2022-11-19T03:58:55.293Z,0.47
2022-11-19T04:01:23.954Z,0.50
2022-11-19T04:04:10.665Z,0.50
2022-11-19T04:06:39.121Z,0.40
2022-11-19T04:09:07.213Z,0.55
2022-11-19T04:11:35.275Z,0.40
2022-11-19T04:14:03.493Z,0.52
2022-11-19T04:16:31.567Z,0.38
2022-11-19T04:19:00.986Z,0.50
2022-11-19T04:21:29.122Z,0.50
2022-11-19T04:23:57.186Z,0.50
2022-11-19T04:26:25.518Z,0.50
2022-11-19T04:28:53.647Z,0.43
2022-11-19T04:31:21.740Z,0.52
2022-11-19T04:33:49.851Z,0.52
2022-11-19T04:36:19.294Z,0.40
2022-11-19T04:38:47.420Z,0.45
2022-11-19T04:41:15.500Z,0.50
2022-11-19T04:43:43.546Z,0.50
2022-11-19T04:46:11.618Z,0.45
2022-11-19T04:48:39.962Z,0.43
2022-11-19T04:51:08.559Z,0.50
2022-11-19T04:53:38.042Z,0.50
2022-11-19T04:56:06.428Z,0.40
2022-11-19T04:58:34.851Z,0.60
2022-11-19T05:01:02.950Z,0.50
2022-11-19T05:03:31.311Z,0.70
2022-11-19T05:05:59.486Z,0.52
2022-11-19T05:08:27.866Z,0.52
2022-11-19T05:10:57.266Z,0.50
2022-11-19T05:13:25.575Z,0.60
2022-11-19T05:15:53.880Z,0.50
2022-11-19T05:18:21.967Z,0.52
2022-11-19T05:20:50.157Z,0.68
2022-11-19T05:23:18.341Z,0.50
2022-11-19T05:25:46.431Z,0.60
2022-11-19T05:28:15.896Z,0.60
2022-11-19T05:30:43.995Z,0.50
2022-11-19T05:33:12.146Z,0.40
2022-11-19T05:35:40.239Z,0.47
2022-11-19T05:38:08.901Z,0.43
2022-11-19T05:40:36.991Z,0.40
2022-11-19T05:43:06.280Z,0.60
2022-11-19T05:45:35.776Z,0.50
2022-11-19T05:48:03.889Z,0.60
2022-11-19T05:50:31.952Z,0.50
2022-11-19T05:53:05.206Z,0.50
2022-11-19T05:55:33.340Z,0.50
2022-11-19T05:58:01.531Z,0.40
2022-11-19T06:00:29.670Z,0.52
2022-11-19T06:02:59.198Z,0.45
2022-11-19T06:05:27.708Z,0.47
2022-11-19T06:07:56.014Z,0.50
2022-11-19T06:10:24.474Z,0.60
2022-11-19T06:12:52.567Z,0.50
2022-11-19T06:15:20.752Z,0.52
2022-11-19T06:17:49.020Z,0.40
2022-11-19T06:20:18.991Z,0.50
2022-11-19T06:22:47.006Z,0.45
2022-11-19T06:25:15.066Z,0.50
2022-11-19T06:27:43.366Z,0.60
2022-11-19T06:30:12.718Z,0.45
2022-11-19T06:32:40.934Z,0.60
2022-11-19T06:35:09.895Z,0.55
2022-11-19T06:37:39.863Z,0.50
2022-11-19T06:40:09.298Z,0.50
2022-11-19T06:42:37.549Z,0.57
2022-11-19T06:45:09.529Z,0.50
2022-11-19T06:47:38.782Z,0.50
2022-11-19T06:50:08.214Z,0.45
2022-11-19T06:52:36.693Z,0.50
2022-11-19T06:55:07.185Z,0.40
2022-11-19T06:57:35.407Z,0.40
2022-11-19T07:00:03.560Z,0.40
2022-11-19T07:02:31.959Z,0.50
2022-11-19T07:05:00.019Z,0.60
2022-11-19T07:07:28.220Z,0.50
2022-11-19T07:09:56.315Z,0.40
2022-11-19T07:12:25.975Z,0.50
2022-11-19T07:14:55.254Z,0.50
2022-11-19T07:17:25.649Z,0.40
2022-11-19T07:19:54.125Z,0.40
2022-11-19T07:22:22.290Z,0.50
2022-11-19T07:24:50.426Z,0.40
2022-11-19T07:27:18.774Z,0.40
2022-11-19T07:29:48.420Z,0.30
2022-11-19T07:32:16.474Z,0.30
2022-11-19T07:34:44.679Z,0.30
2022-11-19T07:37:12.800Z,0.30
2022-11-19T07:39:41.204Z,0.30
2022-11-19T07:42:27.327Z,0.30
2022-11-19T07:44:56.781Z,0.20
2022-11-19T07:47:25.099Z,0.30
2022-11-19T07:49:54.242Z,0.30
2022-11-19T07:52:22.925Z,0.30
2022-11-19T07:54:51.360Z,0.30
2022-11-19T07:57:19.587Z,0.30
2022-11-19T07:59:47.958Z,0.30
2022-11-19T08:02:18.005Z,0.30
2022-11-19T08:04:46.179Z,0.30
2022-11-19T08:07:14.428Z,0.20
2022-11-19T08:09:42.523Z,0.30
2022-11-19T08:12:10.875Z,0.20
2022-11-19T08:14:39.334Z,0.25
2022-11-19T08:17:24.847Z,0.40
2022-11-19T08:19:54.349Z,0.38
2022-11-19T08:22:22.535Z,0.30
2022-11-19T08:24:50.755Z,0.38
2022-11-19T08:27:18.840Z,0.30
2022-11-19T08:29:46.985Z,0.20
2022-11-19T08:32:15.161Z,0.30
2022-11-19T08:34:43.337Z,0.20
2022-11-19T08:37:13.845Z,0.30
2022-11-19T08:39:42.036Z,0.30
2022-11-19T08:42:42.468Z,0.30
2022-11-19T08:45:10.875Z,0.35
2022-11-19T08:47:39.080Z,0.20
2022-11-19T08:50:07.718Z,0.30
2022-11-19T08:52:37.843Z,0.30
2022-11-19T08:55:07.139Z,0.30
2022-11-19T08:57:35.339Z,0.20
2022-11-19T09:00:06.409Z,0.20
2022-11-19T09:02:34.739Z,0.30
2022-11-19T09:05:03.376Z,0.20
2022-11-19T09:07:31.594Z,0.25
2022-11-19T09:10:01.122Z,0.30
2022-11-19T09:12:31.255Z,0.30
2022-11-19T09:14:59.666Z,0.30
2022-11-19T09:17:27.842Z,0.30
2022-11-19T09:19:56.294Z,0.30
2022-11-19T09:22:24.751Z,0.20
2022-11-19T09:24:53.225Z,0.30
2022-11-19T09:27:22.632Z,0.30
2022-11-19T09:29:51.005Z,0.40
2022-11-19T09:32:25.061Z,0.20
2022-11-19T09:34:53.723Z,0.30
2022-11-19T09:37:22.054Z,0.40
2022-11-19T09:39:50.295Z,0.30
2022-11-19T09:42:28.501Z,0.40
2022-11-19T09:45:18.152Z,0.28
2022-11-19T09:48:10.126Z,0.30
2022-11-19T09:50:53.408Z,0.30
2022-11-19T09:53:23.605Z,0.22
2022-11-19T09:55:54.788Z,0.20
2022-11-19T09:58:30.208Z,0.15
2022-11-19T10:00:59.662Z,0.30
2022-11-19T10:03:33.075Z,0.20
2022-11-19T10:06:23.973Z,0.20
2022-11-19T10:09:07.252Z,0.20
2022-11-19T10:11:45.627Z,0.20
2022-11-19T10:14:29.257Z,0.20
2022-11-19T10:17:05.214Z,0.20
2022-11-19T10:19:48.780Z,0.25
2022-11-19T10:22:23.539Z,0.30
2022-11-19T10:24:57.463Z,0.30
2022-11-19T10:27:33.406Z,0.20
2022-11-19T10:30:14.327Z,0.30
2022-11-19T10:32:48.330Z,0.25
2022-11-19T10:35:19.728Z,0.30
2022-11-19T10:37:59.864Z,0.30
2022-11-19T10:40:31.340Z,0.30
2022-11-19T10:43:18.207Z,0.30
2022-11-19T10:45:52.101Z,0.30
2022-11-19T10:48:23.479Z,0.20
2022-11-19T10:50:52.371Z,0.20
2022-11-19T10:53:26.149Z,0.30
2022-11-19T10:55:58.722Z,0.30
2022-11-19T10:58:30.971Z,0.30
2022-11-19T11:01:03.574Z,0.30
2022-11-19T11:03:38.133Z,0.20
2022-11-19T11:06:10.212Z,0.30
2022-11-19T11:08:49.429Z,0.32
2022-11-19T11:11:26.309Z,0.30
2022-11-19T11:14:12.112Z,0.30
2022-11-19T11:16:46.413Z,0.30
2022-11-19T11:19:17.656Z,0.30
2022-11-19T11:21:47.044Z,0.30
2022-11-19T11:24:15.736Z,0.30
2022-11-19T11:26:43.820Z,0.25
2022-11-19T11:29:27.664Z,0.30
2022-11-19T11:31:57.476Z,0.20
2022-11-19T11:34:34.369Z,0.30
2022-11-19T11:37:05.783Z,0.30
2022-11-19T11:39:37.715Z,0.20
2022-11-19T11:42:17.275Z,0.30
2022-11-19T11:44:52.290Z,0.20
2022-11-19T11:47:26.254Z,0.20
2022-11-19T11:50:03.599Z,0.30
2022-11-19T11:52:37.288Z,0.20
2022-11-19T11:55:09.326Z,0.22
2022-11-19T11:57:50.981Z,0.20
2022-11-19T12:00:35.308Z,0.20
2022-11-19T12:03:07.504Z,0.20
2022-11-19T12:05:46.644Z,0.20
2022-11-19T12:08:27.040Z,0.20
2022-11-19T12:11:02.750Z,0.20
2022-11-19T12:13:50.564Z,0.20
2022-11-19T12:16:27.558Z,0.20
2022-11-19T12:19:10.038Z,0.30
2022-11-19T12:21:48.561Z,0.30
2022-11-19T12:24:32.195Z,0.20
2022-11-19T12:27:14.184Z,0.20
2022-11-19T12:29:50.040Z,0.30
2022-11-19T12:32:30.705Z,0.30
2022-11-19T12:35:17.396Z,0.30
2022-11-19T12:37:56.683Z,0.20
2022-11-19T12:40:40.603Z,0.17
2022-11-19T12:43:22.435Z,0.20
2022-11-19T12:45:59.917Z,0.30
2022-11-19T12:48:52.586Z,0.30
2022-11-19T12:51:33.802Z,0.30
2022-11-19T12:54:19.496Z,0.30
2022-11-19T12:56:58.934Z,0.25
2022-11-19T12:59:46.030Z,0.40
2022-11-19T13:02:19.978Z,0.30
2022-11-19T13:04:54.505Z,0.28
2022-11-19T13:07:28.279Z,0.40
2022-11-19T13:10:02.216Z,0.20
2022-11-19T13:12:36.843Z,0.30
2022-11-19T13:15:10.633Z,0.40
2022-11-19T13:17:44.494Z,0.30
2022-11-19T13:20:20.003Z,0.30
2022-11-19T13:25:25.316Z,0.30
2022-11-19T13:27:57.406Z,0.30
2022-11-19T13:30:27.436Z,0.30
2022-11-19T13:33:03.501Z,0.30
2022-11-19T13:35:38.918Z,0.30
2022-11-19T13:38:17.020Z,0.30
2022-11-19T13:40:48.832Z,0.30
2022-11-19T13:43:37.790Z,0.30
2022-11-19T13:46:20.345Z,0.25
2022-11-19T13:48:55.647Z,0.20
2022-11-19T13:51:30.994Z,0.40
2022-11-19T13:54:03.663Z,0.40
2022-11-19T13:56:44.690Z,0.30
2022-11-19T13:59:32.696Z,0.40
2022-11-19T14:02:14.221Z,0.30
2022-11-19T14:05:17.714Z,0.30
2022-11-19T14:08:01.957Z,0.30
2022-11-19T14:10:38.160Z,0.30
2022-11-19T14:13:41.491Z,0.30
2022-11-19T14:16:39.304Z,0.30
2022-11-19T14:19:31.795Z,0.22
2022-11-19T14:22:18.514Z,0.30
2022-11-19T14:25:12.033Z,0.20
2022-11-19T14:27:41.835Z,0.30
2022-11-19T14:30:13.883Z,0.30
2022-11-19T14:32:47.334Z,0.30
2022-11-19T14:35:40.093Z,0.30
2022-11-19T14:38:32.303Z,0.30
2022-11-19T14:41:28.194Z,0.30
2022-11-19T14:44:17.126Z,0.50
2022-11-19T14:46:47.888Z,0.30
2022-11-19T14:49:25.757Z,0.40
2022-11-19T14:51:56.275Z,0.20
2022-11-19T14:54:34.108Z,0.30
2022-11-19T14:57:06.339Z,0.30
2022-11-19T14:59:40.612Z,0.40
2022-11-19T15:02:19.885Z,0.30
2022-11-19T15:04:55.742Z,0.30
2022-11-19T15:07:41.044Z,0.30
2022-11-19T15:10:28.325Z,0.40
2022-11-19T15:13:20.878Z,0.30
2022-11-19T15:16:06.397Z,0.40
2022-11-19T15:19:08.177Z,0.40
2022-11-19T15:22:15.536Z,0.40
2022-11-19T15:25:04.994Z,0.40
2022-11-19T15:27:52.358Z,0.38
2022-11-19T15:30:24.623Z,0.30
2022-11-19T15:33:04.972Z,0.32
2022-11-19T15:35:52.099Z,0.30
2022-11-19T15:38:30.870Z,0.30
2022-11-19T15:41:03.162Z,0.40
2022-11-19T15:43:36.346Z,0.45
2022-11-19T15:46:09.183Z,0.35
2022-11-19T15:48:43.782Z,0.40
2022-11-19T15:51:15.100Z,0.60
2022-11-19T15:53:59.445Z,0.30
2022-11-19T15:56:30.629Z,0.40
2022-11-19T15:58:59.104Z,0.30
2022-11-19T16:01:27.304Z,0.30
2022-11-19T16:03:57.345Z,0.30
2022-11-19T16:06:29.167Z,0.40
2022-11-19T16:09:00.244Z,0.40
2022-11-19T16:11:48.168Z,0.40
2022-11-19T16:14:41.242Z,0.40
2022-11-19T16:17:31.354Z,0.38
2022-11-19T16:20:22.015Z,0.40
2022-11-19T16:22:55.631Z,0.40
2022-11-19T16:25:34.201Z,0.50
2022-11-19T16:28:05.652Z,0.40
2022-11-19T16:30:46.383Z,0.40
2022-11-19T16:33:18.614Z,0.30
2022-11-19T16:35:52.644Z,0.50
2022-11-19T16:38:27.700Z,0.50
2022-11-19T16:41:10.135Z,0.40
2022-11-19T16:43:38.598Z,0.50
2022-11-19T16:46:11.093Z,0.50
2022-11-19T16:49:00.667Z,0.40
2022-11-19T16:51:36.592Z,0.43
2022-11-19T16:54:06.990Z,0.50
2022-11-19T16:56:39.227Z,0.50
2022-11-19T16:59:08.185Z,0.40
2022-11-19T17:01:37.035Z,0.50
2022-11-19T17:04:08.164Z,0.40
2022-11-19T17:06:38.646Z,0.50
2022-11-19T17:09:07.854Z,0.40
2022-11-19T17:12:14.362Z,0.40
2022-11-19T17:17:35.588Z,0.50
2022-11-19T17:21:00.245Z,0.45
2022-11-19T17:23:31.741Z,0.50
2022-11-19T17:26:02.126Z,0.50
2022-11-19T17:28:36.450Z,0.50
2022-11-19T17:31:18.276Z,0.50
2022-11-19T17:33:52.674Z,0.50
2022-11-19T17:36:22.169Z,0.60
2022-11-19T17:38:51.810Z,0.40
2022-11-19T17:41:42.933Z,0.57
2022-11-19T17:44:34.758Z,0.50
2022-11-19T17:47:03.520Z,0.40
2022-11-19T17:49:32.155Z,0.50
2022-11-19T17:52:00.154Z,0.50
2022-11-19T17:54:31.276Z,0.50
2022-11-19T17:56:59.400Z,0.40
2022-11-19T17:59:27.446Z,0.50
2022-11-19T18:01:56.572Z,0.47
2022-11-19T18:04:24.822Z,0.50
2022-11-19T18:06:53.381Z,0.55
2022-11-19T18:09:21.494Z,0.40
2022-11-19T18:11:51.115Z,0.50
2022-11-19T18:14:19.236Z,0.40
2022-11-19T18:16:47.422Z,0.40
2022-11-19T18:19:25.102Z,0.50
2022-11-19T18:21:54.648Z,0.60
2022-11-19T18:24:22.930Z,0.50
2022-11-19T18:26:52.906Z,0.65
2022-11-19T18:29:21.458Z,0.57
2022-11-19T18:31:52.247Z,0.50
2022-11-19T18:34:22.772Z,0.50
2022-11-19T18:36:51.363Z,0.60
2022-11-19T18:39:20.097Z,0.60
2022-11-19T18:41:48.945Z,0.57
2022-11-19T18:44:35.863Z,0.50
2022-11-19T18:47:05.933Z,0.50
2022-11-19T18:49:35.271Z,0.60
2022-11-19T18:52:03.597Z,0.50
2022-11-19T18:54:31.887Z,0.60
2022-11-19T18:57:00.033Z,0.60
2022-11-19T18:59:32.001Z,0.60
2022-11-19T19:02:00.102Z,0.60
2022-11-19T19:04:28.214Z,0.68
2022-11-19T19:07:01.406Z,0.50
2022-11-19T19:09:29.548Z,0.50
2022-11-19T19:12:14.840Z,0.50
2022-11-19T19:14:45.001Z,0.40
2022-11-19T19:17:13.617Z,0.50
2022-11-19T19:19:42.080Z,0.50
2022-11-19T19:22:10.387Z,0.47
2022-11-19T19:24:38.895Z,0.70
2022-11-19T19:27:07.092Z,0.40
2022-11-19T19:29:35.299Z,0.60
2022-11-19T19:32:05.225Z,0.50
2022-11-19T19:34:33.444Z,0.50
2022-11-19T19:37:01.723Z,0.40
2022-11-19T19:39:30.009Z,0.55
2022-11-19T19:41:58.018Z,0.60
2022-11-19T19:44:26.097Z,0.60
2022-11-19T19:46:54.346Z,0.40
2022-11-19T19:49:24.271Z,0.60
2022-11-19T19:51:52.457Z,0.50
2022-11-19T19:54:20.672Z,0.50
2022-11-19T19:56:49.011Z,0.55
2022-11-19T19:59:17.258Z,0.50
2022-11-19T20:01:47.468Z,0.47
2022-11-19T20:04:15.946Z,0.50
2022-11-19T20:06:51.235Z,0.40
2022-11-19T20:09:19.718Z,0.47
2022-11-19T20:11:48.578Z,0.50
2022-11-19T20:14:17.521Z,0.55
2022-11-19T20:16:45.801Z,0.52
2022-11-19T20:19:15.405Z,0.52
2022-11-19T20:21:44.000Z,0.50
2022-11-19T20:24:14.093Z,0.50
2022-11-19T20:26:43.217Z,0.50
2022-11-19T20:29:13.977Z,0.57
2022-11-19T20:31:46.078Z,0.57
2022-11-19T20:34:15.116Z,0.63
2022-11-19T20:36:44.084Z,0.50
2022-11-19T20:39:14.001Z,0.60
2022-11-19T20:41:59.298Z,0.65
2022-11-19T20:44:27.371Z,0.60
2022-11-19T20:46:56.453Z,0.50
2022-11-19T20:49:26.458Z,0.50
2022-11-19T20:51:54.679Z,0.50
2022-11-19T20:54:24.837Z,0.50
2022-11-19T20:57:23.314Z,0.40
2022-11-19T20:59:51.328Z,0.60
2022-11-19T21:02:19.461Z,0.68
2022-11-19T21:04:47.729Z,0.50
2022-11-19T21:07:15.990Z,0.50
2022-11-19T21:09:45.751Z,0.50
2022-11-19T21:12:13.940Z,0.55
2022-11-19T21:14:42.479Z,0.50
2022-11-19T21:17:10.647Z,0.60
2022-11-19T21:19:39.721Z,0.60
2022-11-19T21:22:07.762Z,0.50
2022-11-19T21:24:35.886Z,0.50
2022-11-19T21:27:05.298Z,0.50
2022-11-19T21:29:33.512Z,0.40
2022-11-19T21:32:01.596Z,0.50
2022-11-19T21:34:29.701Z,0.47
2022-11-19T21:36:58.418Z,0.40
2022-11-19T21:39:26.475Z,0.55
2022-11-19T21:41:54.851Z,0.40
2022-11-19T21:44:24.463Z,0.60
2022-11-19T21:46:52.729Z,0.40
2022-11-19T21:49:21.175Z,0.50
2022-11-19T21:51:49.986Z,0.50
2022-11-19T21:54:18.860Z,0.57
2022-11-19T21:56:47.235Z,0.50
2022-11-19T21:59:15.289Z,0.50
2022-11-19T22:01:45.077Z,0.50
2022-11-19T22:04:15.506Z,0.60
2022-11-19T22:06:43.564Z,0.50
2022-11-19T22:09:11.765Z,0.50
2022-11-19T22:11:39.792Z,0.50
2022-11-19T22:14:09.882Z,0.60
2022-11-19T22:16:39.877Z,0.50
2022-11-19T22:19:11.254Z,0.50
2022-11-19T22:21:39.970Z,0.50
2022-11-19T22:24:08.228Z,0.60
2022-11-19T22:26:36.403Z,0.50
2022-11-19T22:29:04.401Z,0.57
2022-11-19T22:31:32.892Z,0.60
2022-11-19T22:34:01.050Z,0.60
2022-11-19T22:36:33.348Z,0.50
2022-11-19T22:39:01.620Z,0.50
2022-11-19T22:41:29.622Z,0.60
2022-11-19T22:43:58.583Z,0.50
2022-11-19T22:46:26.589Z,0.50
2022-11-19T22:48:54.636Z,0.47
2022-11-19T22:51:24.964Z,0.40
2022-11-19T22:53:55.833Z,0.50
2022-11-19T22:56:25.446Z,0.50
2022-11-19T22:58:54.077Z,0.50
2022-11-19T23:01:24.285Z,0.50
2022-11-19T23:03:53.059Z,0.60
2022-11-19T23:06:21.112Z,0.50
2022-11-19T23:08:49.185Z,0.40
2022-11-19T23:11:42.434Z,0.68
2022-11-19T23:14:11.619Z,0.60
2022-11-19T23:16:40.439Z,0.50
2022-11-19T23:19:09.031Z,0.40
2022-11-19T23:21:37.488Z,0.70
2022-11-19T23:24:06.487Z,0.57
2022-11-19T23:26:36.051Z,0.50
2022-11-19T23:29:04.315Z,0.50
2022-11-19T23:31:34.235Z,0.60
2022-11-19T23:34:02.772Z,0.52
2022-11-19T23:36:34.319Z,0.60
2022-11-19T23:39:03.317Z,0.50
2022-11-19T23:41:32.978Z,0.60
2022-11-19T23:44:02.997Z,0.50
2022-11-19T23:46:32.728Z,0.50
2022-11-19T23:49:01.638Z,0.43
2022-11-19T23:51:32.511Z,0.60
2022-11-19T23:54:02.394Z,0.60
2022-11-19T23:56:32.561Z,0.50
2022-11-19T23:59:03.316Z,0.45
